createdAt,value
2022-12-01T00:03:17.725Z,89.77
2022-12-01T00:08:19.721Z,89.96
2022-12-01T00:13:21.515Z,90.20
2022-12-01T00:18:23.212Z,89.79
2022-12-01T00:23:25.026Z,89.88
2022-12-01T00:28:26.651Z,90.25
2022-12-01T00:33:28.604Z,89.68
2022-12-01T00:38:30.369Z,90.46
2022-12-01T00:43:32.248Z,90.36
2022-12-01T00:48:33.884Z,90.49
2022-12-01T00:53:35.599Z,91.03
2022-12-01T00:58:37.337Z,91.34
2022-12-01T01:03:39.035Z,91.18
2022-12-01T01:08:40.884Z,90.63
2022-12-01T01:13:42.583Z,91.23
2022-12-01T01:18:44.746Z,90.89
2022-12-01T01:23:47.098Z,90.56
2022-12-01T01:28:49.106Z,90.17
2022-12-01T01:33:51.210Z,90.40
2022-12-01T01:38:53.385Z,89.77
2022-12-01T01:44:00.117Z,90.16
2022-12-01T01:49:08.310Z,90.42
2022-12-01T01:54:17.450Z,90.17
2022-12-01T01:59:26.050Z,90.38
2022-12-01T02:04:28.996Z,90.13
2022-12-01T02:09:30.663Z,90.03
2022-12-01T02:14:41.429Z,90.38
2022-12-01T02:19:46.144Z,90.62
2022-12-01T02:25:17.744Z,91.25
2022-12-01T02:30:47.703Z,90.61
2022-12-01T02:35:56.186Z,90.75
2022-12-01T02:41:04.877Z,90.92
2022-12-01T02:46:13.785Z,90.68
2022-12-01T02:51:35.478Z,90.77
2022-12-01T02:56:37.074Z,91.26
2022-12-01T03:02:00.258Z,91.20
2022-12-01T03:07:24.815Z,91.33
2022-12-01T03:12:44.803Z,91.78
2022-12-01T03:17:46.435Z,92.03
2022-12-01T03:22:54.974Z,91.71
2022-12-01T03:28:20.679Z,91.43
2022-12-01T03:33:39.857Z,91.42
2022-12-01T03:38:45.561Z,91.96
2022-12-01T03:43:53.639Z,91.78
2022-12-01T03:48:55.594Z,91.78
2022-12-01T03:54:10.342Z,91.77
2022-12-01T03:59:13.276Z,91.95
2022-12-01T04:04:15.386Z,92.30
2022-12-01T04:09:17.246Z,91.38
2022-12-01T04:14:18.895Z,91.38
2022-12-01T04:19:20.620Z,91.69
2022-12-01T04:24:22.352Z,90.80
2022-12-01T04:29:23.962Z,91.29
2022-12-01T04:34:25.661Z,91.73
2022-12-01T04:39:27.383Z,91.53
2022-12-01T04:44:34.496Z,91.69
2022-12-01T04:49:37.348Z,92.13
2022-12-01T04:54:38.989Z,91.53
2022-12-01T04:59:40.623Z,91.85
2022-12-01T05:04:42.304Z,91.32
2022-12-01T05:09:44.022Z,91.43
2022-12-01T05:14:45.933Z,90.89
2022-12-01T05:20:06.112Z,90.54
2022-12-01T05:25:08.215Z,90.25
2022-12-01T05:30:10.636Z,90.52
2022-12-01T05:35:12.834Z,90.93
2022-12-01T05:40:14.486Z,91.05
2022-12-01T05:45:16.377Z,91.06
2022-12-01T05:50:18.112Z,90.91
2022-12-01T05:55:19.916Z,90.41
2022-12-01T06:00:21.619Z,90.70
2022-12-01T06:05:23.300Z,90.31
2022-12-01T06:10:24.977Z,90.11
2022-12-01T06:15:27.253Z,89.96
2022-12-01T06:20:28.905Z,89.40
2022-12-01T06:25:30.961Z,89.72
2022-12-01T06:30:32.623Z,89.76
2022-12-01T06:35:35.197Z,89.62
2022-12-01T06:40:36.901Z,90.18
2022-12-01T06:45:38.597Z,90.45
2022-12-01T06:50:40.936Z,90.76
2022-12-01T06:55:42.552Z,90.50
2022-12-01T07:00:47.734Z,90.59
2022-12-01T07:06:01.163Z,90.62
2022-12-01T07:11:08.300Z,90.54
2022-12-01T07:16:10.135Z,90.46
2022-12-01T07:21:14.107Z,90.98
2022-12-01T07:26:17.894Z,90.33
2022-12-01T07:31:22.719Z,90.19
2022-12-01T07:36:24.463Z,89.97
2022-12-01T07:41:26.114Z,90.01
2022-12-01T07:46:28.343Z,90.23
2022-12-01T07:51:30.011Z,90.40
2022-12-01T07:56:32.159Z,89.91
2022-12-01T08:01:33.927Z,89.69
2022-12-01T08:06:35.642Z,89.40
2022-12-01T08:11:37.339Z,89.03
2022-12-01T08:16:39.006Z,89.04
2022-12-01T08:21:40.990Z,89.18
2022-12-01T08:26:45.674Z,88.85
2022-12-01T08:31:47.629Z,88.49
2022-12-01T08:36:49.292Z,88.20
2022-12-01T08:41:50.983Z,88.53
2022-12-01T08:46:52.721Z,87.98
2022-12-01T08:51:56.306Z,88.03
2022-12-01T08:56:58.394Z,87.05
2022-12-01T09:02:05.365Z,87.33
2022-12-01T09:07:10.412Z,87.51
2022-12-01T09:12:12.910Z,87.71
2022-12-01T09:17:15.865Z,87.96
2022-12-01T09:22:17.532Z,88.10
2022-12-01T09:27:19.293Z,88.05
2022-12-01T09:32:20.923Z,88.01
2022-12-01T09:37:22.549Z,88.38
2022-12-01T09:42:30.897Z,88.27
2022-12-01T09:47:37.123Z,88.37
2022-12-01T09:52:44.905Z,87.97
2022-12-01T09:57:52.154Z,87.95
2022-12-01T10:02:56.690Z,87.22
2022-12-01T10:08:02.164Z,88.04
2022-12-01T10:13:15.576Z,87.49
2022-12-01T10:18:29.419Z,87.11
2022-12-01T10:23:47.960Z,86.80
2022-12-01T10:28:49.947Z,86.95
2022-12-01T10:34:01.033Z,87.29
2022-12-01T10:39:04.932Z,87.42
2022-12-01T10:44:07.086Z,86.75
2022-12-01T10:49:14.349Z,86.65
2022-12-01T10:54:16.618Z,86.60
2022-12-01T10:59:32.017Z,86.71
2022-12-01T11:04:45.716Z,86.68
2022-12-01T11:09:59.320Z,86.98
2022-12-01T11:15:00.939Z,86.68
2022-12-01T11:20:24.547Z,86.54
2022-12-01T11:25:26.235Z,86.79
2022-12-01T11:30:30.204Z,86.18
2022-12-01T11:35:34.750Z,86.23
2022-12-01T11:40:50.138Z,86.42
2022-12-01T11:45:52.180Z,86.38
2022-12-01T11:51:10.979Z,86.51
2022-12-01T11:56:12.622Z,86.79
2022-12-01T12:01:22.071Z,86.05
2022-12-01T12:06:39.908Z,86.35
2022-12-01T12:11:47.856Z,86.12
2022-12-01T12:17:01.777Z,86.22
2022-12-01T12:22:42.779Z,86.61
2022-12-01T12:27:58.824Z,86.72
2022-12-01T12:33:25.454Z,86.69
2022-12-01T12:38:46.323Z,87.31
2022-12-01T12:44:13.478Z,87.46
2022-12-01T12:49:25.951Z,86.85
2022-12-01T12:54:37.084Z,86.80
2022-12-01T12:59:40.460Z,87.21
2022-12-01T13:04:54.349Z,87.14
2022-12-01T13:10:01.098Z,87.53
2022-12-01T13:15:11.998Z,87.28
2022-12-01T13:20:17.592Z,86.46
2022-12-01T13:25:38.182Z,86.92
2022-12-01T13:30:39.856Z,87.26
2022-12-01T13:35:41.517Z,87.00
2022-12-01T13:40:43.165Z,86.70
2022-12-01T13:45:44.966Z,86.89
2022-12-01T13:51:03.648Z,86.88
2022-12-01T13:56:08.430Z,86.53
2022-12-01T14:01:23.123Z,86.22
2022-12-01T14:06:30.801Z,86.90
2022-12-01T14:11:34.016Z,86.66
2022-12-01T14:16:50.906Z,86.48
2022-12-01T14:21:52.641Z,86.75
2022-12-01T14:26:54.866Z,86.27
2022-12-01T14:32:02.386Z,86.34
2022-12-01T14:37:11.761Z,86.08
2022-12-01T14:42:40.036Z,86.71
2022-12-01T14:47:49.877Z,87.01
2022-12-01T14:53:19.847Z,87.36
2022-12-01T14:58:24.350Z,87.48
2022-12-01T15:03:32.135Z,87.69
2022-12-01T15:08:53.280Z,87.71
2022-12-01T15:13:57.927Z,87.49
2022-12-01T15:18:59.552Z,87.77
2022-12-01T15:24:02.448Z,87.38
2022-12-01T15:29:45.543Z,87.31
2022-12-01T15:34:49.703Z,87.40
2022-12-01T15:40:00.816Z,87.54
2022-12-01T15:45:16.742Z,86.89
2022-12-01T15:50:44.490Z,86.55
2022-12-01T15:55:51.796Z,86.51
2022-12-01T16:01:11.464Z,86.24
2022-12-01T16:06:13.163Z,86.21
2022-12-01T16:11:17.689Z,86.33
2022-12-01T16:16:28.788Z,86.48
2022-12-01T16:22:11.938Z,86.60
2022-12-01T16:27:18.500Z,85.98
2022-12-01T16:32:23.466Z,85.39
2022-12-01T16:37:26.555Z,85.71
2022-12-01T16:42:28.222Z,85.33
2022-12-01T16:47:31.724Z,85.16
2022-12-01T16:52:44.123Z,85.36
2022-12-01T16:57:46.483Z,85.34
2022-12-01T17:02:48.198Z,85.40
2022-12-01T17:07:50.360Z,85.55
2022-12-01T17:12:52.159Z,85.23
2022-12-01T17:17:53.837Z,85.49
2022-12-01T17:22:55.676Z,85.48
2022-12-01T17:27:57.343Z,85.22
2022-12-01T17:32:58.988Z,85.57
2022-12-01T17:38:00.630Z,85.34
2022-12-01T17:43:02.257Z,85.03
2022-12-01T17:48:04.053Z,84.97
2022-12-01T17:53:05.740Z,85.01
2022-12-01T17:58:07.357Z,84.99
2022-12-01T18:03:09.031Z,84.94
2022-12-01T18:08:10.808Z,85.09
2022-12-01T18:13:12.433Z,85.05
2022-12-01T18:18:14.064Z,84.92
2022-12-01T18:23:15.743Z,85.01
2022-12-01T18:28:17.529Z,85.39
2022-12-01T18:33:20.961Z,84.54
2022-12-01T18:38:24.918Z,84.98
2022-12-01T18:43:28.755Z,85.13
2022-12-01T18:48:30.949Z,85.40
2022-12-01T18:53:32.993Z,85.24
2022-12-01T18:58:35.148Z,85.04
2022-12-01T19:03:36.946Z,85.31
2022-12-01T19:08:39.511Z,85.67
2022-12-01T19:13:42.558Z,85.62
2022-12-01T19:18:44.395Z,85.90
2022-12-01T19:23:46.943Z,85.51
2022-12-01T19:28:49.004Z,85.54
2022-12-01T19:33:53.001Z,86.31
2022-12-01T19:38:57.604Z,86.00
2022-12-01T19:43:59.946Z,85.51
2022-12-01T19:49:02.113Z,85.48
2022-12-01T19:54:05.356Z,85.69
2022-12-01T19:59:08.014Z,87.03
2022-12-01T20:04:09.651Z,87.42
2022-12-01T20:09:11.471Z,87.92
2022-12-01T20:14:13.209Z,88.34
2022-12-01T20:19:15.120Z,88.34
2022-12-01T20:24:19.915Z,88.08
2022-12-01T20:29:24.188Z,88.01
2022-12-01T20:34:36.129Z,87.82
2022-12-01T20:39:41.325Z,87.98
2022-12-01T20:44:43.760Z,87.83
2022-12-01T20:49:45.688Z,87.82
2022-12-01T20:54:47.489Z,88.27
2022-12-01T20:59:49.236Z,88.01
2022-12-01T21:04:56.391Z,88.26
2022-12-01T21:10:00.860Z,88.19
2022-12-01T21:15:05.500Z,88.52
2022-12-01T21:20:40.597Z,88.44
2022-12-01T21:25:42.986Z,88.48
2022-12-01T21:30:46.207Z,88.41
2022-12-01T21:35:51.408Z,88.73
2022-12-01T21:40:53.297Z,88.73
2022-12-01T21:46:11.290Z,88.63
2022-12-01T21:51:19.533Z,88.85
2022-12-01T21:56:25.901Z,88.39
2022-12-01T22:01:32.316Z,87.82
2022-12-01T22:06:46.669Z,88.59
2022-12-01T22:11:52.869Z,88.17
2022-12-01T22:17:20.940Z,87.89
2022-12-01T22:22:25.769Z,88.25
2022-12-01T22:27:28.954Z,88.46
2022-12-01T22:32:54.212Z,88.23
2022-12-01T22:38:20.719Z,88.47
2022-12-01T22:43:32.659Z,88.80
2022-12-01T22:48:46.444Z,88.64
2022-12-01T22:53:48.806Z,88.56
2022-12-01T22:58:50.432Z,88.98
2022-12-01T23:04:08.122Z,88.25
2022-12-01T23:09:13.649Z,88.57
2022-12-01T23:14:18.740Z,88.36
2022-12-01T23:19:20.364Z,88.88
2022-12-01T23:24:22.035Z,88.80
2022-12-01T23:29:23.856Z,89.11
2022-12-01T23:34:25.693Z,89.23
2022-12-01T23:39:32.522Z,88.99
2022-12-01T23:44:42.210Z,89.10
2022-12-01T23:49:45.295Z,89.24
2022-12-01T23:54:47.008Z,89.16
2022-12-01T23:59:49.688Z,89.13
